Time;durP1;ratioP1;P1;durP2;ratioP2;P2;SDS_P1;SDS_P2;PMS_P1;PMS_P2;Temp;Humidity;BMP_temperature;BMP_pressure;BME280_temperature;BME280_humidity;BME280_pressure;Samples;Min_cycle;Max_cycle;Signal;HPM_P1;HPM_P2
2024/03/04 00:01:45;;;;;;;;;;;;;;;;;;6311190;28;19991;-61
2024/03/04 00:04:49;;;;;;;;;;;;;;;;;;6311663;28;19987;-60
2024/03/04 00:07:52;;;;;;;;;;;;;;;;;;6310615;28;19979;-60
2024/03/04 00:10:57;;;;;;;;;;;;;;;;;;6311065;28;19987;-60
2024/03/04 00:14:01;;;;;;;;;;;;;;;;;;6311314;28;20194;-60
2024/03/04 00:17:06;;;;;;;;;;;;;;;;;;6310943;28;19992;-60
2024/03/04 00:20:11;;;;;;;;;;;;;;;;;;6311091;28;19987;-60
2024/03/04 00:23:14;;;;;;;;;;;;;;;;;;6310403;28;20106;-60
2024/03/04 00:26:19;;;;;;;;;;;;;;;;;;6310781;28;20007;-59
2024/03/04 00:29:22;;;;;;;;;;;;;;;;;;6311085;28;20248;-59
2024/03/04 00:32:26;;;;;;;;;;;;;;;;;;6310846;28;19988;-59
2024/03/04 00:35:29;;;;;;;;;;;;;;;;;;6310675;28;19987;-59
2024/03/04 00:38:33;;;;;;;;;;;;;;;;;;6311201;28;19987;-60
2024/03/04 00:41:39;;;;;;;;;;;;;;;;;;6310534;28;19988;-59
2024/03/04 00:44:43;;;;;;;;;;;;;;;;;;6311052;28;20225;-60
2024/03/04 00:47:47;;;;;;;;;;;;;;;;;;6310310;28;19979;-60
2024/03/04 00:50:52;;;;;;;;;;;;;;;;;;6310122;28;19988;-59
2024/03/04 00:53:57;;;;;;;;;;;;;;;;;;6310874;28;19983;-59
2024/03/04 00:57:03;;;;;;;;;;;;;;;;;;6310180;28;20003;-60
2024/03/04 01:00:08;;;;;;;;;;;;;;;;;;6310547;28;19984;-59
2024/03/04 01:03:12;;;;;;;;;;;;;;;;;;6309816;28;19991;-59
2024/03/04 01:06:15;;;;;;;;;;;;;;;;;;6309930;28;20196;-59
2024/03/04 01:09:19;;;;;;;;;;;;;;;;;;6310441;28;20151;-59
2024/03/04 01:12:23;;;;;;;;;;;;;;;;;;6309925;28;19987;-60
2024/03/04 01:15:27;;;;;;;;;;;;;;;;;;6309824;28;20058;-59
2024/03/04 01:18:31;;;;;;;;;;;;;;;;;;6310714;28;19979;-59
2024/03/04 01:21:35;;;;;;;;;;;;;;;;;;6309876;28;20187;-59
2024/03/04 01:24:38;;;;;;;;;;;;;;;;;;6310312;28;19992;-59
2024/03/04 01:27:43;;;;;;;;;;;;;;;;;;6308712;28;20213;-59
2024/03/04 01:30:46;;;;;;;;;;;;;;;;;;6309593;28;20166;-59
2024/03/04 01:33:50;;;;;;;;;;;;;;;;;;6310195;28;19983;-60
2024/03/04 01:36:53;;;;;;;;;;;;;;;;;;6309325;28;20214;-61
2024/03/04 01:39:57;;;;;;;;;;;;;;;;;;6310072;28;19999;-60
2024/03/04 01:43:03;;;;;;;;;;;;;;;;;;6309754;28;19987;-60
2024/03/04 01:46:06;;;;;;;;;;;;;;;;;;6309505;28;19988;-60
2024/03/04 01:49:10;;;;;;;;;;;;;;;;;;6309629;28;19983;-60
2024/03/04 01:52:14;;;;;;;;;;;;;;;;;;6309297;28;19979;-60
2024/03/04 01:55:17;;;;;;;;;;;;;;;;;;6310148;28;20141;-60
2024/03/04 01:58:22;;;;;;;;;;;;;;;;;;6308859;28;19980;-60
2024/03/04 02:01:26;;;;;;;;;;;;;;;;;;6309412;28;19983;-60
2024/03/04 02:04:30;;;;;;;;;;;;;;;;;;6309770;28;20150;-60
2024/03/04 02:07:34;;;;;;;;;;;;;;;;;;6308962;28;19987;-60
2024/03/04 02:10:37;;;;;;;;;;;;;;;;;;6309077;28;20251;-60
2024/03/04 02:13:43;;;;;;;;;;;;;;;;;;6309321;28;20177;-60
2024/03/04 02:16:47;;;;;;;;;;;;;;;;;;6311768;28;19992;-59
2024/03/04 02:19:50;;;;;;;;;;;;;;;;;;6314218;28;19983;-60
2024/03/04 02:22:55;;;;;;;;;;;;;;;;;;6313556;28;19992;-60
2024/03/04 02:25:59;;;;;;;;;;;;;;;;;;6313359;28;19984;-60
2024/03/04 02:29:03;;;;;;;;;;;;;;;;;;6313665;28;19995;-59
2024/03/04 02:32:06;;;;;;;;;;;;;;;;;;6313383;28;19987;-59
2024/03/04 02:35:10;;;;;;;;;;;;;;;;;;6313381;28;20256;-59
2024/03/04 02:38:15;;;;;;;;;;;;;;;;;;6313106;28;19987;-60
2024/03/04 02:41:19;;;;;;;;;;;;;;;;;;6313175;28;19979;-60
2024/03/04 02:44:23;;;;;;;;;;;;;;;;;;6312329;28;19979;-59
2024/03/04 02:47:26;;;;;;;;;;;;;;;;;;6313235;28;19995;-60
2024/03/04 02:50:30;;;;;;;;;;;;;;;;;;6312928;28;20154;-59
2024/03/04 02:53:35;;;;;;;;;;;;;;;;;;6313055;28;19991;-59
2024/03/04 02:56:39;;;;;;;;;;;;;;;;;;6312715;28;19979;-59
2024/03/04 02:59:42;;;;;;;;;;;;;;;;;;6313166;28;20085;-59
2024/03/04 03:02:46;;;;;;;;;;;;;;;;;;6312561;28;19992;-59
2024/03/04 03:05:50;;;;;;;;;;;;;;;;;;6312764;28;19983;-59
2024/03/04 03:08:54;;;;;;;;;;;;;;;;;;6312618;28;19992;-58
2024/03/04 03:11:59;;;;;;;;;;;;;;;;;;6312407;28;19997;-59
2024/03/04 03:15:04;;;;;;;;;;;;;;;;;;6313045;28;20276;-59
2024/03/04 03:18:07;;;;;;;;;;;;;;;;;;6312517;28;20153;-59
2024/03/04 03:21:14;;;;;;;;;;;;;;;;;;6312053;28;19999;-60
2024/03/04 03:24:19;;;;;;;;;;;;;;;;;;6312483;28;19983;-59
2024/03/04 03:27:24;;;;;;;;;;;;;;;;;;6312026;28;19983;-59
2024/03/04 03:30:29;;;;;;;;;;;;;;;;;;6311229;28;19988;-59
2024/03/04 03:33:33;;;;;;;;;;;;;;;;;;6312283;28;19988;-59
2024/03/04 03:36:40;;;;;;;;;;;;;;;;;;6311659;28;19975;-59
2024/03/04 03:39:46;;;;;;;;;;;;;;;;;;6311325;28;20007;-60
2024/03/04 03:42:50;;;;;;;;;;;;;;;;;;6310490;28;19980;-59
2024/03/04 03:45:53;;;;;;;;;;;;;;;;;;6311624;28;19984;-58
2024/03/04 03:48:57;;;;;;;;;;;;;;;;;;6311455;28;20078;-59
2024/03/04 03:52:00;;;;;;;;;;;;;;;;;;6311092;28;20095;-59
2024/03/04 03:55:05;;;;;;;;;;;;;;;;;;6311292;28;19983;-59
2024/03/04 03:58:09;;;;;;;;;;;;;;;;;;6311311;28;20003;-60
2024/03/04 04:01:12;;;;;;;;;;;;;;;;;;6311629;28;19979;-62
2024/03/04 04:04:17;;;;;;;;;;;;;;;;;;6309562;28;20102;-59
2024/03/04 04:07:22;;;;;;;;;;;;;;;;;;6285307;28;19979;-59
2024/03/04 04:10:27;;;;;;;;;;;;;;;;;;6291592;28;19991;-58
2024/03/04 04:13:30;;;;;;;;;;;;;;;;;;6310758;28;19991;-59
2024/03/04 04:16:34;;;;;;;;;;;;;;;;;;6311060;28;19991;-59
2024/03/04 04:19:38;;;;;;;;;;;;;;;;;;6310676;28;19979;-59
2024/03/04 04:22:41;;;;;;;;;;;;;;;;;;6310331;28;20007;-59
2024/03/04 04:25:46;;;;;;;;;;;;;;;;;;6311070;28;20272;-59
2024/03/04 04:28:50;;;;;;;;;;;;;;;;;;6310252;28;20204;-59
2024/03/04 04:31:54;;;;;;;;;;;;;;;;;;6310697;28;19992;-59
2024/03/04 04:34:58;;;;;;;;;;;;;;;;;;6310421;28;19987;-60
2024/03/04 04:38:01;;;;;;;;;;;;;;;;;;6309791;28;19992;-58
2024/03/04 04:41:06;;;;;;;;;;;;;;;;;;6310632;28;19983;-59
2024/03/04 04:44:10;;;;;;;;;;;;;;;;;;6309893;28;20167;-58
2024/03/04 04:47:13;;;;;;;;;;;;;;;;;;6310383;28;19987;-59
2024/03/04 04:50:17;;;;;;;;;;;;;;;;;;6309776;28;20002;-59
2024/03/04 04:53:23;;;;;;;;;;;;;;;;;;6309958;28;20003;-60
2024/03/04 04:56:29;;;;;;;;;;;;;;;;;;6310252;28;20007;-61
2024/03/04 04:59:32;;;;;;;;;;;;;;;;;;6309722;28;19999;-60
2024/03/04 05:02:36;;;;;;;;;;;;;;;;;;6310263;28;20205;-60
2024/03/04 05:05:39;;;;;;;;;;;;;;;;;;6309727;28;20000;-60
2024/03/04 05:08:43;;;;;;;;;;;;;;;;;;6309470;28;19992;-60
2024/03/04 05:11:48;;;;;;;;;;;;;;;;;;6310069;28;20141;-60
2024/03/04 05:14:51;;;;;;;;;;;;;;;;;;6309514;28;19987;-60
2024/03/04 05:17:55;;;;;;;;;;;;;;;;;;6309405;28;19992;-60
2024/03/04 05:20:59;;;;;;;;;;;;;;;;;;6310042;28;19975;-59
2024/03/04 05:24:02;;;;;;;;;;;;;;;;;;6309254;28;19983;-59
2024/03/04 05:27:07;;;;;;;;;;;;;;;;;;6309940;28;19979;-60
2024/03/04 05:30:11;;;;;;;;;;;;;;;;;;6308966;28;19983;-59
2024/03/04 05:33:15;;;;;;;;;;;;;;;;;;6309647;28;19983;-60
2024/03/04 05:36:19;;;;;;;;;;;;;;;;;;6309958;28;19983;-60
2024/03/04 05:39:23;;;;;;;;;;;;;;;;;;6309336;28;19983;-60
2024/03/04 05:42:27;;;;;;;;;;;;;;;;;;6310078;28;19988;-60
2024/03/04 05:45:31;;;;;;;;;;;;;;;;;;6309445;28;20164;-60
2024/03/04 05:48:34;;;;;;;;;;;;;;;;;;6309228;28;20233;-60
2024/03/04 05:51:39;;;;;;;;;;;;;;;;;;6312750;28;19975;-60
2024/03/04 05:54:42;;;;;;;;;;;;;;;;;;6312151;28;19991;-59
2024/03/04 05:57:47;;;;;;;;;;;;;;;;;;6313796;28;19999;-60
2024/03/04 06:00:51;;;;;;;;;;;;;;;;;;6314559;28;19991;-59
2024/03/04 06:03:55;;;;;;;;;;;;;;;;;;6313799;28;20152;-58
2024/03/04 06:06:58;;;;;;;;;;;;;;;;;;6314087;28;19992;-60
2024/03/04 06:10:02;;;;;;;;;;;;;;;;;;6313640;28;19991;-60
2024/03/04 06:13:07;;;;;;;;;;;;;;;;;;6313677;28;19984;-60
2024/03/04 06:16:11;;;;;;;;;;;;;;;;;;6314307;28;19983;-60
2024/03/04 06:19:14;;;;;;;;;;;;;;;;;;6313600;28;20009;-60
2024/03/04 06:22:18;;;;;;;;;;;;;;;;;;6314161;28;19983;-59
2024/03/04 06:25:22;;;;;;;;;;;;;;;;;;6312941;28;19989;-59
2024/03/04 06:28:27;;;;;;;;;;;;;;;;;;6313080;28;19992;-59
2024/03/04 06:31:30;;;;;;;;;;;;;;;;;;6313485;28;20113;-60
2024/03/04 06:34:34;;;;;;;;;;;;;;;;;;6313144;28;19992;-59
2024/03/04 06:37:39;;;;;;;;;;;;;;;;;;6313686;28;19991;-58
2024/03/04 06:40:43;;;;;;;;;;;;;;;;;;6312876;28;20018;-59
2024/03/04 06:43:48;;;;;;;;;;;;;;;;;;6313140;28;19980;-60
2024/03/04 06:46:52;;;;;;;;;;;;;;;;;;6313551;28;20253;-60
2024/03/04 06:49:55;;;;;;;;;;;;;;;;;;6312473;28;20080;-59
2024/03/04 06:52:59;;;;;;;;;;;;;;;;;;6312590;28;19987;-60
2024/03/04 06:56:03;;;;;;;;;;;;;;;;;;6313110;28;19983;-60
2024/03/04 06:59:08;;;;;;;;;;;;;;;;;;6312044;28;19976;-60
2024/03/04 07:02:12;;;;;;;;;;;;;;;;;;6312908;28;19979;-60
2024/03/04 07:05:16;;;;;;;;;;;;;;;;;;6312637;28;20268;-60
2024/03/04 07:08:19;;;;;;;;;;;;;;;;;;6312103;28;20268;-60
2024/03/04 07:11:22;;;;;;;;;;;;;;;;;;6312368;28;19996;-61
2024/03/04 07:14:27;;;;;;;;;;;;;;;;;;6312170;28;19988;-60
2024/03/04 07:17:31;;;;;;;;;;;;;;;;;;6312510;28;20277;-60
2024/03/04 07:20:34;;;;;;;;;;;;;;;;;;6312195;28;19984;-60
2024/03/04 07:23:39;;;;;;;;;;;;;;;;;;6311834;28;19987;-59
2024/03/04 07:26:43;;;;;;;;;;;;;;;;;;6312576;28;20275;-60
2024/03/04 07:29:47;;;;;;;;;;;;;;;;;;6312345;28;20014;-60
2024/03/04 07:33:08;;;;;;;;;;;;;;;;;;6312186;28;20273;-60
2024/03/04 07:36:13;;;;;;;;;;;;;;;;;;6312533;28;19991;-60
2024/03/04 07:39:19;;;;;;;;;;;;;;;;;;6311572;28;20153;-60
2024/03/04 07:42:24;;;;;;;;;;;;;;;;;;6312360;28;19995;-59
2024/03/04 07:45:28;;;;;;;;;;;;;;;;;;6311424;28;20007;-60
2024/03/04 07:48:32;;;;;;;;;;;;;;;;;;6311797;28;19987;-60
2024/03/04 07:51:35;;;;;;;;;;;;;;;;;;6312066;28;19979;-60
2024/03/04 07:54:39;;;;;;;;;;;;;;;;;;6310837;28;19996;-64
2024/03/04 07:57:43;;;;;;;;;;;;;;;;;;6310694;28;19987;-60
2024/03/04 08:00:49;;;;;;;;;;;;;;;;;;6311583;28;20161;-60
2024/03/04 08:03:54;;;;;;;;;;;;;;;;;;6311473;28;19992;-60
2024/03/04 08:06:58;;;;;;;;;;;;;;;;;;6311913;28;19987;-59
2024/03/04 08:10:01;;;;;;;;;;;;;;;;;;6310650;28;19991;-60
2024/03/04 08:13:05;;;;;;;;;;;;;;;;;;6310792;28;19983;-61
2024/03/04 08:16:10;;;;;;;;;;;;;;;;;;6311216;28;20277;-59
2024/03/04 08:19:14;;;;;;;;;;;;;;;;;;6310692;28;19995;-60
2024/03/04 08:22:17;;;;;;;;;;;;;;;;;;6311102;28;19976;-59
2024/03/04 08:25:21;;;;;;;;;;;;;;;;;;6310560;28;19983;-60
2024/03/04 08:28:24;;;;;;;;;;;;;;;;;;6310437;28;19983;-60
2024/03/04 08:31:39;;;;;;;;;;;;;;;;;;6310821;28;20160;-60
2024/03/04 08:34:42;;;;;;;;;;;;;;;;;;6310353;28;20191;-60
2024/03/04 08:37:49;;;;;;;;;;;;;;;;;;6310755;28;19991;-59
2024/03/04 08:40:53;;;;;;;;;;;;;;;;;;6310839;28;19979;-60
2024/03/04 08:43:56;;;;;;;;;;;;;;;;;;6310127;28;20004;-60
2024/03/04 08:47:01;;;;;;;;;;;;;;;;;;6310488;28;20036;-59
2024/03/04 08:50:05;;;;;;;;;;;;;;;;;;6310420;28;19991;-60
2024/03/04 08:53:09;;;;;;;;;;;;;;;;;;6310387;28;19987;-59
2024/03/04 08:56:13;;;;;;;;;;;;;;;;;;6310803;28;19983;-60
2024/03/04 08:59:16;;;;;;;;;;;;;;;;;;6310080;28;19979;-59
2024/03/04 09:02:22;;;;;;;;;;;;;;;;;;6310509;28;19983;-59
2024/03/04 09:05:25;;;;;;;;;;;;;;;;;;6310299;28;19983;-60
2024/03/04 09:08:29;;;;;;;;;;;;;;;;;;6286119;28;20012;-60
2024/03/04 09:11:32;;;;;;;;;;;;;;;;;;6302754;28;19984;-59
2024/03/04 09:14:36;;;;;;;;;;;;;;;;;;6309745;28;19992;-59
2024/03/04 09:17:42;;;;;;;;;;;;;;;;;;6309994;28;19980;-63
2024/03/04 09:20:45;;;;;;;;;;;;;;;;;;6310522;28;19988;-60
2024/03/04 09:23:49;;;;;;;;;;;;;;;;;;6310219;28;19992;-59
2024/03/04 09:26:52;;;;;;;;;;;;;;;;;;6314913;28;20004;-59
2024/03/04 09:29:56;;;;;;;;;;;;;;;;;;6314935;28;19983;-60
2024/03/04 09:33:02;;;;;;;;;;;;;;;;;;6314859;28;20003;-60
2024/03/04 09:36:06;;;;;;;;;;;;;;;;;;6314229;28;19983;-60
2024/03/04 09:39:09;;;;;;;;;;;;;;;;;;6313180;28;20284;-60
2024/03/04 09:42:17;;;;;;;;;;;;;;;;;;6315195;28;20156;-60
2024/03/04 09:45:20;;;;;;;;;;;;;;;;;;6314554;28;19988;-59
2024/03/04 09:48:25;;;;;;;;;;;;;;;;;;6314359;28;20008;-58
2024/03/04 09:51:29;;;;;;;;;;;;;;;;;;6314886;28;19983;-59
2024/03/04 09:54:35;;;;;;;;;;;;;;;;;;6314135;28;19988;-59
2024/03/04 09:57:39;;;;;;;;;;;;;;;;;;6314139;28;20155;-60
2024/03/04 10:00:42;;;;;;;;;;;;;;;;;;6313131;28;19987;-60
2024/03/04 10:03:47;;;;;;;;;;;;;;;;;;6313938;28;20248;-60
2024/03/04 10:06:51;;;;;;;;;;;;;;;;;;6314506;28;19991;-60
2024/03/04 10:09:57;;;;;;;;;;;;;;;;;;6313941;28;19991;-60
2024/03/04 10:13:00;;;;;;;;;;;;;;;;;;6313475;28;20252;-59
2024/03/04 10:16:06;;;;;;;;;;;;;;;;;;6314447;28;19992;-62
2024/03/04 10:19:10;;;;;;;;;;;;;;;;;;6313959;28;20151;-60
2024/03/04 10:22:14;;;;;;;;;;;;;;;;;;6314210;28;20160;-60
2024/03/04 10:25:17;;;;;;;;;;;;;;;;;;6313926;28;19979;-60
2024/03/04 10:28:24;;;;;;;;;;;;;;;;;;6313427;28;19987;-60
2024/03/04 10:31:27;;;;;;;;;;;;;;;;;;6313743;28;20383;-59
2024/03/04 10:34:32;;;;;;;;;;;;;;;;;;6313335;28;19987;-59
2024/03/04 10:37:36;;;;;;;;;;;;;;;;;;6312982;28;20014;-60
2024/03/04 10:40:40;;;;;;;;;;;;;;;;;;6313470;28;19991;-59
2024/03/04 10:43:44;;;;;;;;;;;;;;;;;;6313296;28;19987;-61
2024/03/04 10:46:47;;;;;;;;;;;;;;;;;;6313961;28;19984;-60
2024/03/04 10:49:52;;;;;;;;;;;;;;;;;;6312819;28;19988;-60
2024/03/04 10:52:56;;;;;;;;;;;;;;;;;;6312840;28;19985;-59
2024/03/04 10:56:04;;;;;;;;;;;;;;;;;;6312337;28;20252;-59
2024/03/04 10:59:07;;;;;;;;;;;;;;;;;;6312997;28;20089;-61
2024/03/04 11:02:13;;;;;;;;;;;;;;;;;;6313560;28;20126;-61
2024/03/04 11:05:17;;;;;;;;;;;;;;;;;;6313200;28;19991;-60
2024/03/04 11:08:23;;;;;;;;;;;;;;;;;;6312722;28;19983;-61
2024/03/04 11:11:32;;;;;;;;;;;;;;;;;;6312892;28;19984;-59
2024/03/04 11:14:37;;;;;;;;;;;;;;;;;;6312538;28;19999;-59
2024/03/04 11:17:42;;;;;;;;;;;;;;;;;;6312578;28;19987;-60
2024/03/04 11:21:04;;;;;;;;;;;;;;;;;;6312851;28;19980;-59
2024/03/04 11:24:08;;;;;;;;;;;;;;;;;;6312588;28;20155;-60
2024/03/04 11:27:12;;;;;;;;;;;;;;;;;;6313376;28;19987;-60
2024/03/04 11:30:16;;;;;;;;;;;;;;;;;;6312610;28;19987;-60
2024/03/04 11:33:36;;;;;;;;;;;;;;;;;;6312924;28;20008;-60
2024/03/04 11:36:41;;;;;;;;;;;;;;;;;;6312225;28;19984;-62
2024/03/04 11:39:45;;;;;;;;;;;;;;;;;;6312317;28;19976;-60
2024/03/04 11:42:50;;;;;;;;;;;;;;;;;;6310465;28;19991;-61
2024/03/04 11:45:53;;;;;;;;;;;;;;;;;;6312342;28;20209;-60
2024/03/04 11:48:58;;;;;;;;;;;;;;;;;;6310992;28;20161;-61
2024/03/04 11:52:04;;;;;;;;;;;;;;;;;;6312255;28;19975;-61
2024/03/04 11:55:09;;;;;;;;;;;;;;;;;;6311554;28;19983;-61
2024/03/04 11:58:13;;;;;;;;;;;;;;;;;;6311392;28;19988;-60
2024/03/04 12:01:16;;;;;;;;;;;;;;;;;;6311879;28;19987;-60
2024/03/04 12:04:27;;;;;;;;;;;;;;;;;;6311841;28;19984;-58
2024/03/04 12:07:33;;;;;;;;;;;;;;;;;;6310716;28;19983;-59
2024/03/04 12:10:36;;;;;;;;;;;;;;;;;;6311406;28;20184;-59
2024/03/04 12:13:40;;;;;;;;;;;;;;;;;;6311307;28;19987;-60
2024/03/04 12:16:44;;;;;;;;;;;;;;;;;;6311289;28;19987;-59
2024/03/04 12:19:53;;;;;;;;;;;;;;;;;;6311150;28;19983;-61
2024/03/04 12:23:02;;;;;;;;;;;;;;;;;;6310755;28;20252;-60
2024/03/04 12:26:09;;;;;;;;;;;;;;;;;;6311561;28;19979;-60
2024/03/04 12:29:13;;;;;;;;;;;;;;;;;;6311028;28;19984;-61
2024/03/04 12:32:18;;;;;;;;;;;;;;;;;;6311254;28;19988;-60
2024/03/04 12:35:22;;;;;;;;;;;;;;;;;;6311063;28;19991;-60
2024/03/04 12:38:29;;;;;;;;;;;;;;;;;;6310582;28;19980;-60
2024/03/04 12:41:32;;;;;;;;;;;;;;;;;;6311119;28;19987;-60
2024/03/04 12:44:37;;;;;;;;;;;;;;;;;;6310523;28;19987;-61
2024/03/04 12:47:40;;;;;;;;;;;;;;;;;;6310846;28;19992;-63
2024/03/04 12:50:45;;;;;;;;;;;;;;;;;;6310936;28;20148;-60
2024/03/04 12:53:50;;;;;;;;;;;;;;;;;;6310636;28;19983;-60
2024/03/04 12:56:54;;;;;;;;;;;;;;;;;;6310547;28;19984;-59
2024/03/04 12:59:58;;;;;;;;;;;;;;;;;;6309952;28;19983;-60
2024/03/04 13:03:02;;;;;;;;;;;;;;;;;;6310252;28;19983;-61
2024/03/04 13:06:05;;;;;;;;;;;;;;;;;;6311043;28;20011;-59
2024/03/04 13:09:13;;;;;;;;;;;;;;;;;;6310096;28;20162;-60
2024/03/04 13:12:18;;;;;;;;;;;;;;;;;;6308521;28;20220;-60
2024/03/04 13:15:22;;;;;;;;;;;;;;;;;;6310124;28;19983;-59
2024/03/04 13:18:26;;;;;;;;;;;;;;;;;;6309971;28;20239;-61
2024/03/04 13:21:29;;;;;;;;;;;;;;;;;;6310865;28;19983;-60
2024/03/04 13:24:34;;;;;;;;;;;;;;;;;;6310366;28;19984;-60
2024/03/04 13:27:40;;;;;;;;;;;;;;;;;;6310508;28;20149;-60
2024/03/04 13:30:43;;;;;;;;;;;;;;;;;;6309284;28;19980;-60
2024/03/04 13:33:48;;;;;;;;;;;;;;;;;;6310269;28;20027;-60
2024/03/04 13:36:51;;;;;;;;;;;;;;;;;;6310301;28;19983;-59
2024/03/04 13:39:56;;;;;;;;;;;;;;;;;;6310186;28;19987;-61
2024/03/04 13:43:00;;;;;;;;;;;;;;;;;;6309415;28;20004;-59
2024/03/04 13:46:18;;;;;;;;;;;;;;;;;;6310246;28;20070;-60
2024/03/04 13:49:22;;;;;;;;;;;;;;;;;;6309717;28;19983;-60
2024/03/04 13:52:26;;;;;;;;;;;;;;;;;;6310356;28;20244;-59
2024/03/04 13:55:33;;;;;;;;;;;;;;;;;;6309674;28;20284;-59
2024/03/04 13:58:37;;;;;;;;;;;;;;;;;;6309778;28;19987;-60
2024/03/04 14:01:41;;;;;;;;;;;;;;;;;;6310250;28;20003;-59
2024/03/04 14:04:45;;;;;;;;;;;;;;;;;;6309836;28;20166;-59
2024/03/04 14:07:48;;;;;;;;;;;;;;;;;;6309211;28;20126;-59
2024/03/04 14:10:54;;;;;;;;;;;;;;;;;;6309652;28;19983;-60
2024/03/04 14:13:58;;;;;;;;;;;;;;;;;;6313789;28;19984;-60
2024/03/04 14:17:02;;;;;;;;;;;;;;;;;;6314283;28;19979;-60
2024/03/04 14:20:06;;;;;;;;;;;;;;;;;;6313998;28;20237;-59
2024/03/04 14:23:10;;;;;;;;;;;;;;;;;;6313840;28;19984;-60
2024/03/04 14:26:16;;;;;;;;;;;;;;;;;;6313927;28;19992;-60
2024/03/04 14:29:20;;;;;;;;;;;;;;;;;;6313630;28;20248;-59
2024/03/04 14:32:23;;;;;;;;;;;;;;;;;;6314055;28;19987;-61
2024/03/04 14:35:28;;;;;;;;;;;;;;;;;;6313448;28;19991;-60
2024/03/04 14:38:34;;;;;;;;;;;;;;;;;;6313161;28;20039;-60
2024/03/04 14:41:39;;;;;;;;;;;;;;;;;;6313624;28;19988;-59
2024/03/04 14:44:44;;;;;;;;;;;;;;;;;;6313172;28;19983;-60
2024/03/04 14:47:47;;;;;;;;;;;;;;;;;;6312987;28;20031;-60
2024/03/04 14:50:52;;;;;;;;;;;;;;;;;;6313355;28;19991;-59
2024/03/04 14:53:56;;;;;;;;;;;;;;;;;;6313116;28;19992;-60
2024/03/04 14:57:01;;;;;;;;;;;;;;;;;;6313449;28;19983;-60
2024/03/04 15:00:10;;;;;;;;;;;;;;;;;;6312969;28;20117;-61
2024/03/04 15:03:14;;;;;;;;;;;;;;;;;;6312812;28;19975;-58
2024/03/04 15:06:18;;;;;;;;;;;;;;;;;;6312925;28;19979;-60
2024/03/04 15:09:21;;;;;;;;;;;;;;;;;;6312460;28;19991;-60
2024/03/04 15:12:26;;;;;;;;;;;;;;;;;;6313015;28;19979;-59
2024/03/04 15:15:30;;;;;;;;;;;;;;;;;;6312592;28;19983;-60
2024/03/04 15:18:34;;;;;;;;;;;;;;;;;;6312491;28;19987;-60
2024/03/04 15:21:38;;;;;;;;;;;;;;;;;;6310504;28;19983;-60
2024/03/04 15:24:41;;;;;;;;;;;;;;;;;;6310815;28;19995;-60
2024/03/04 15:27:47;;;;;;;;;;;;;;;;;;6311883;28;19988;-61
2024/03/04 15:30:50;;;;;;;;;;;;;;;;;;6311913;28;19987;-59
2024/03/04 15:33:54;;;;;;;;;;;;;;;;;;6312009;28;20120;-59
2024/03/04 15:36:58;;;;;;;;;;;;;;;;;;6312522;28;20257;-60
2024/03/04 15:40:02;;;;;;;;;;;;;;;;;;6312260;28;19992;-60
2024/03/04 15:43:08;;;;;;;;;;;;;;;;;;6311572;28;19987;-59
2024/03/04 15:46:11;;;;;;;;;;;;;;;;;;6312422;28;20264;-60
2024/03/04 15:49:15;;;;;;;;;;;;;;;;;;6311740;28;20245;-60
2024/03/04 15:52:18;;;;;;;;;;;;;;;;;;6312499;28;20245;-60
2024/03/04 15:55:22;;;;;;;;;;;;;;;;;;6311717;28;19988;-60
2024/03/04 15:58:27;;;;;;;;;;;;;;;;;;6311640;28;20048;-60
2024/03/04 16:01:31;;;;;;;;;;;;;;;;;;6312109;28;19983;-60
2024/03/04 16:04:34;;;;;;;;;;;;;;;;;;6311392;28;19988;-60
2024/03/04 16:07:38;;;;;;;;;;;;;;;;;;6311348;28;20016;-61
2024/03/04 16:10:41;;;;;;;;;;;;;;;;;;6309005;28;19984;-61
2024/03/04 16:13:46;;;;;;;;;;;;;;;;;;6309733;28;20007;-60
2024/03/04 16:16:52;;;;;;;;;;;;;;;;;;6311544;28;19980;-61
2024/03/04 16:19:57;;;;;;;;;;;;;;;;;;6310777;28;19976;-61
2024/03/04 16:23:00;;;;;;;;;;;;;;;;;;6310944;28;19983;-61
2024/03/04 16:26:04;;;;;;;;;;;;;;;;;;6310943;28;20158;-61
2024/03/04 16:29:09;;;;;;;;;;;;;;;;;;6310318;28;20078;-60
2024/03/04 16:32:12;;;;;;;;;;;;;;;;;;6310728;28;20039;-61
2024/03/04 16:35:16;;;;;;;;;;;;;;;;;;6309691;28;19992;-61
2024/03/04 16:38:19;;;;;;;;;;;;;;;;;;6310458;28;19987;-60
2024/03/04 16:41:23;;;;;;;;;;;;;;;;;;6310880;28;19983;-60
2024/03/04 16:44:28;;;;;;;;;;;;;;;;;;6310353;28;19987;-61
2024/03/04 16:47:31;;;;;;;;;;;;;;;;;;6310773;28;19979;-59
2024/03/04 16:50:35;;;;;;;;;;;;;;;;;;6310323;28;20003;-60
2024/03/04 16:53:38;;;;;;;;;;;;;;;;;;6310136;28;19987;-60
2024/03/04 16:56:44;;;;;;;;;;;;;;;;;;6307766;28;20007;-61
2024/03/04 16:59:49;;;;;;;;;;;;;;;;;;6285446;28;19987;-60
2024/03/04 17:02:53;;;;;;;;;;;;;;;;;;6285781;28;19980;-59
2024/03/04 17:05:56;;;;;;;;;;;;;;;;;;6285458;28;20020;-60
2024/03/04 17:09:00;;;;;;;;;;;;;;;;;;6284829;28;19976;-60
2024/03/04 17:12:04;;;;;;;;;;;;;;;;;;6306892;28;19983;-59
2024/03/04 17:15:11;;;;;;;;;;;;;;;;;;6310084;28;19988;-60
2024/03/04 17:18:14;;;;;;;;;;;;;;;;;;6310367;28;20000;-60
2024/03/04 17:21:18;;;;;;;;;;;;;;;;;;6310718;28;19979;-61
2024/03/04 17:24:22;;;;;;;;;;;;;;;;;;6310135;28;20147;-59
2024/03/04 17:27:25;;;;;;;;;;;;;;;;;;6310223;28;20003;-59
2024/03/04 17:30:31;;;;;;;;;;;;;;;;;;6309662;28;19984;-59
2024/03/04 17:33:34;;;;;;;;;;;;;;;;;;6309650;28;19992;-59
2024/03/04 17:36:38;;;;;;;;;;;;;;;;;;6309999;28;19987;-59
2024/03/04 17:39:42;;;;;;;;;;;;;;;;;;6308229;28;19980;-60
2024/03/04 17:42:45;;;;;;;;;;;;;;;;;;6309339;28;19991;-62
2024/03/04 17:45:51;;;;;;;;;;;;;;;;;;6310881;28;19987;-59
2024/03/04 17:48:55;;;;;;;;;;;;;;;;;;6314254;28;20134;-60
2024/03/04 17:51:59;;;;;;;;;;;;;;;;;;6314672;28;19983;-60
2024/03/04 17:55:02;;;;;;;;;;;;;;;;;;6313784;28;19987;-60
2024/03/04 17:58:05;;;;;;;;;;;;;;;;;;6313803;28;19987;-60
2024/03/04 18:01:17;;;;;;;;;;;;;;;;;;6314269;28;19988;-60
2024/03/04 18:04:21;;;;;;;;;;;;;;;;;;6314245;28;19975;-60
2024/03/04 18:07:24;;;;;;;;;;;;;;;;;;6314292;28;19999;-60
2024/03/04 18:10:28;;;;;;;;;;;;;;;;;;6313720;28;19995;-60
2024/03/04 18:13:32;;;;;;;;;;;;;;;;;;6313892;28;19991;-60
2024/03/04 18:16:37;;;;;;;;;;;;;;;;;;6314178;28;20024;-59
2024/03/04 18:19:40;;;;;;;;;;;;;;;;;;6313524;28;20041;-60
2024/03/04 18:22:44;;;;;;;;;;;;;;;;;;6313388;28;19988;-59
2024/03/04 18:25:48;;;;;;;;;;;;;;;;;;6313750;28;19983;-60
2024/03/04 18:28:52;;;;;;;;;;;;;;;;;;6313291;28;19987;-60
2024/03/04 18:31:58;;;;;;;;;;;;;;;;;;6313670;28;19979;-60
2024/03/04 18:35:04;;;;;;;;;;;;;;;;;;6313352;28;19991;-60
2024/03/04 18:38:08;;;;;;;;;;;;;;;;;;6313553;28;20265;-61
2024/03/04 18:41:30;;;;;;;;;;;;;;;;;;6316973;28;19979;-60
2024/03/04 18:44:34;;;;;;;;;;;;;;;;;;6313383;28;20147;-60
2024/03/04 18:47:39;;;;;;;;;;;;;;;;;;6313793;28;20268;-61
2024/03/04 18:50:43;;;;;;;;;;;;;;;;;;6313005;28;19979;-61
2024/03/04 18:53:46;;;;;;;;;;;;;;;;;;6313422;28;20248;-60
2024/03/04 18:56:50;;;;;;;;;;;;;;;;;;6313790;28;19983;-60
2024/03/04 18:59:53;;;;;;;;;;;;;;;;;;6312934;28;19991;-59
2024/03/04 19:02:58;;;;;;;;;;;;;;;;;;6311593;28;20163;-58
2024/03/04 19:06:02;;;;;;;;;;;;;;;;;;6313248;28;20245;-60
2024/03/04 19:09:06;;;;;;;;;;;;;;;;;;6312361;28;19984;-60
2024/03/04 19:12:11;;;;;;;;;;;;;;;;;;6313321;28;19980;-60
2024/03/04 19:15:14;;;;;;;;;;;;;;;;;;6312855;28;19983;-61
2024/03/04 19:18:20;;;;;;;;;;;;;;;;;;6312785;28;19992;-61
2024/03/04 19:21:25;;;;;;;;;;;;;;;;;;6313115;28;20268;-60
2024/03/04 19:24:29;;;;;;;;;;;;;;;;;;6312479;28;19992;-60
2024/03/04 19:27:33;;;;;;;;;;;;;;;;;;6312942;28;19987;-60
2024/03/04 19:30:39;;;;;;;;;;;;;;;;;;6312429;28;19983;-59
2024/03/04 19:33:48;;;;;;;;;;;;;;;;;;6311665;28;19979;-60
2024/03/04 19:36:51;;;;;;;;;;;;;;;;;;6312611;28;19988;-60
2024/03/04 19:39:57;;;;;;;;;;;;;;;;;;6312136;28;19984;-60
2024/03/04 19:43:02;;;;;;;;;;;;;;;;;;6311832;28;19991;-60
2024/03/04 19:46:07;;;;;;;;;;;;;;;;;;6312270;28;19988;-61
2024/03/04 19:49:12;;;;;;;;;;;;;;;;;;6311302;28;19987;-60
2024/03/04 19:52:16;;;;;;;;;;;;;;;;;;6311975;28;19984;-60
2024/03/04 19:55:20;;;;;;;;;;;;;;;;;;6311613;28;20044;-61
2024/03/04 19:58:23;;;;;;;;;;;;;;;;;;6311203;28;20079;-60
2024/03/04 20:01:27;;;;;;;;;;;;;;;;;;6311497;28;19987;-60
2024/03/04 20:04:32;;;;;;;;;;;;;;;;;;6311100;28;19991;-59
2024/03/04 20:07:36;;;;;;;;;;;;;;;;;;6311041;28;19996;-60
2024/03/04 20:10:39;;;;;;;;;;;;;;;;;;6310010;28;19995;-59
2024/03/04 20:13:43;;;;;;;;;;;;;;;;;;6310570;28;20257;-59
2024/03/04 20:16:47;;;;;;;;;;;;;;;;;;6311175;28;19987;-59
2024/03/04 20:19:54;;;;;;;;;;;;;;;;;;6310749;28;19991;-60
2024/03/04 20:22:58;;;;;;;;;;;;;;;;;;6310519;28;19983;-60
2024/03/04 20:26:01;;;;;;;;;;;;;;;;;;6311036;28;20184;-60
2024/03/04 20:29:05;;;;;;;;;;;;;;;;;;6310809;28;20098;-60
2024/03/04 20:32:08;;;;;;;;;;;;;;;;;;6310951;28;19983;-60
2024/03/04 20:35:13;;;;;;;;;;;;;;;;;;6310774;28;19983;-60
2024/03/04 20:38:20;;;;;;;;;;;;;;;;;;6310385;28;19984;-61
2024/03/04 20:41:23;;;;;;;;;;;;;;;;;;6310913;28;20070;-60
2024/03/04 20:44:27;;;;;;;;;;;;;;;;;;6310269;28;20000;-60
2024/03/04 20:47:30;;;;;;;;;;;;;;;;;;6310556;28;20268;-60
2024/03/04 20:50:35;;;;;;;;;;;;;;;;;;6310383;28;19988;-60
2024/03/04 20:53:39;;;;;;;;;;;;;;;;;;6310199;28;20013;-59
2024/03/04 20:56:43;;;;;;;;;;;;;;;;;;6310253;28;19975;-60
2024/03/04 20:59:46;;;;;;;;;;;;;;;;;;6310268;28;19987;-60